createdAt,value
2023-05-22T00:01:33.909Z,33.83
2023-05-22T00:03:36.884Z,33.95
2023-05-22T00:05:39.345Z,33.96
2023-05-22T00:07:43.333Z,33.82
2023-05-22T00:09:45.381Z,33.79
2023-05-22T00:11:47.515Z,34.04
2023-05-22T00:13:49.151Z,33.42
2023-05-22T00:15:50.841Z,33.63
2023-05-22T00:17:54.060Z,33.89
2023-05-22T00:19:55.810Z,33.69
2023-05-22T00:21:57.420Z,33.67
2023-05-22T00:23:59.009Z,33.48
2023-05-22T00:26:00.747Z,33.56
2023-05-22T00:28:02.545Z,33.32
2023-05-22T00:30:04.635Z,33.90
2023-05-22T00:32:06.463Z,33.67
2023-05-22T00:34:08.107Z,33.45
2023-05-22T00:36:09.839Z,33.81
2023-05-22T00:38:27.860Z,33.46
2023-05-22T00:40:29.448Z,33.45
2023-05-22T00:42:31.194Z,33.47
2023-05-22T00:44:32.924Z,33.84
2023-05-22T00:46:34.667Z,33.77
2023-05-22T00:48:36.418Z,33.52
2023-05-22T00:50:38.296Z,33.38
2023-05-22T00:52:42.755Z,33.47
2023-05-22T00:54:44.639Z,33.65
2023-05-22T00:56:46.451Z,33.25
2023-05-22T00:58:48.318Z,33.49
2023-05-22T01:00:50.083Z,33.23
2023-05-22T01:02:51.947Z,33.62
2023-05-22T01:04:56.776Z,33.49
2023-05-22T01:06:59.216Z,33.75
2023-05-22T01:09:01.038Z,33.13
2023-05-22T01:11:22.862Z,33.30
2023-05-22T01:14:03.486Z,33.37
2023-05-22T01:16:13.270Z,33.27
2023-05-22T01:18:30.486Z,33.38
2023-05-22T01:20:37.105Z,33.11
2023-05-22T01:23:20.693Z,33.34
2023-05-22T01:25:28.085Z,33.43
2023-05-22T01:27:54.183Z,33.26
2023-05-22T01:30:12.816Z,33.18
2023-05-22T01:32:21.907Z,33.14
2023-05-22T01:34:23.688Z,33.18
2023-05-22T01:36:28.838Z,33.15
2023-05-22T01:38:30.727Z,32.99
2023-05-22T01:40:32.642Z,32.97
2023-05-22T01:42:34.878Z,32.89
2023-05-22T01:44:36.735Z,33.38
2023-05-22T01:46:38.458Z,33.02
2023-05-22T01:48:40.043Z,33.44
2023-05-22T01:50:42.035Z,32.92
2023-05-22T01:53:02.472Z,33.16
2023-05-22T01:55:35.371Z,32.94
2023-05-22T01:57:46.364Z,33.07
2023-05-22T01:59:58.672Z,32.78
2023-05-22T02:02:05.245Z,32.84
2023-05-22T02:04:08.265Z,33.29
2023-05-22T02:06:13.649Z,33.17
2023-05-22T02:08:15.978Z,33.28
2023-05-22T02:10:18.449Z,33.13
2023-05-22T02:12:20.429Z,33.09
2023-05-22T02:14:22.383Z,33.22
2023-05-22T02:16:24.557Z,33.15
2023-05-22T02:18:29.558Z,32.99
2023-05-22T02:20:31.274Z,33.20
2023-05-22T02:22:32.936Z,33.16
2023-05-22T02:24:36.625Z,33.14
2023-05-22T02:26:39.606Z,33.05
2023-05-22T02:28:42.864Z,33.05
2023-05-22T02:30:44.690Z,32.92
2023-05-22T02:32:46.686Z,32.65
2023-05-22T02:34:48.698Z,32.75
2023-05-22T02:36:50.976Z,32.85
2023-05-22T02:38:52.749Z,32.26
2023-05-22T02:40:54.351Z,32.72
2023-05-22T02:42:55.990Z,32.83
2023-05-22T02:44:57.689Z,32.31
2023-05-22T02:46:59.370Z,33.07
2023-05-22T02:49:01.077Z,32.62
2023-05-22T02:51:02.922Z,32.71
2023-05-22T02:53:04.476Z,32.65
2023-05-22T02:55:07.369Z,32.75
2023-05-22T02:57:09.061Z,32.99
2023-05-22T02:59:11.236Z,32.91
2023-05-22T03:01:12.894Z,32.84
2023-05-22T03:03:14.694Z,32.76
2023-05-22T03:05:17.861Z,32.68
2023-05-22T03:07:21.388Z,32.53
2023-05-22T03:09:23.315Z,32.51
2023-05-22T03:11:25.048Z,32.42
2023-05-22T03:13:26.648Z,32.79
2023-05-22T03:15:28.324Z,32.67
2023-05-22T03:17:29.964Z,32.38
2023-05-22T03:19:31.776Z,32.86
2023-05-22T03:21:33.606Z,32.61
2023-05-22T03:23:35.241Z,32.53
2023-05-22T03:25:39.639Z,32.60
2023-05-22T03:27:41.303Z,32.62
2023-05-22T03:29:42.954Z,32.62
2023-05-22T03:31:44.617Z,32.58
2023-05-22T03:33:46.363Z,32.35
2023-05-22T03:35:48.058Z,32.83
2023-05-22T03:37:49.672Z,32.38
2023-05-22T03:39:51.287Z,32.41
2023-05-22T03:41:53.047Z,32.49
2023-05-22T03:43:54.689Z,32.68
2023-05-22T03:45:56.290Z,32.38
2023-05-22T03:47:58.137Z,32.76
2023-05-22T03:49:59.807Z,32.60
2023-05-22T03:52:01.645Z,32.46
2023-05-22T03:54:03.559Z,32.34
2023-05-22T03:56:05.729Z,32.38
2023-05-22T03:58:07.375Z,32.58
2023-05-22T04:00:13.534Z,32.50
2023-05-22T04:02:16.576Z,32.58
2023-05-22T04:04:18.218Z,32.77
2023-05-22T04:06:23.445Z,32.83
2023-05-22T04:08:25.222Z,32.60
2023-05-22T04:10:26.859Z,32.68
2023-05-22T04:12:28.416Z,32.46
2023-05-22T04:14:30.140Z,32.73
2023-05-22T04:16:32.668Z,32.58
2023-05-22T04:18:34.265Z,32.47
2023-05-22T04:20:35.978Z,33.04
2023-05-22T04:22:38.501Z,32.61
2023-05-22T04:24:40.254Z,32.73
2023-05-22T04:26:42.698Z,32.65
2023-05-22T04:28:46.203Z,32.93
2023-05-22T04:30:48.871Z,32.68
2023-05-22T04:32:51.638Z,33.03
2023-05-22T04:34:53.281Z,33.51
2023-05-22T04:36:54.992Z,32.60
2023-05-22T04:38:56.650Z,32.88
2023-05-22T04:40:58.289Z,32.72
2023-05-22T04:43:01.515Z,32.63
2023-05-22T04:45:03.786Z,32.77
2023-05-22T04:47:07.810Z,32.99
2023-05-22T04:49:10.497Z,32.73
2023-05-22T04:51:12.945Z,32.65
2023-05-22T04:53:14.838Z,32.94
2023-05-22T04:55:16.738Z,32.74
2023-05-22T04:57:19.381Z,32.82
2023-05-22T04:59:23.254Z,32.68
2023-05-22T05:01:28.748Z,32.74
2023-05-22T05:03:31.685Z,32.48
2023-05-22T05:05:33.937Z,32.76
2023-05-22T05:07:43.536Z,32.80
2023-05-22T05:09:45.606Z,32.68
2023-05-22T05:11:47.181Z,32.99
2023-05-22T05:13:48.848Z,32.44
2023-05-22T05:15:50.606Z,32.89
2023-05-22T05:17:52.395Z,32.76
2023-05-22T05:19:54.104Z,33.02
2023-05-22T05:21:55.809Z,32.77
2023-05-22T05:23:57.591Z,32.71
2023-05-22T05:25:59.381Z,32.86
2023-05-22T05:28:01.078Z,32.88
2023-05-22T05:30:03.819Z,32.93
2023-05-22T05:32:05.593Z,32.71
2023-05-22T05:34:07.679Z,32.78
2023-05-22T05:36:10.004Z,32.71
2023-05-22T05:38:11.786Z,32.81
2023-05-22T05:40:13.907Z,32.79
2023-05-22T05:42:17.386Z,32.68
2023-05-22T05:44:19.048Z,33.17
2023-05-22T05:46:20.957Z,33.05
2023-05-22T05:48:22.622Z,32.96
2023-05-22T05:50:24.296Z,32.73
2023-05-22T05:52:27.146Z,32.90
2023-05-22T05:54:28.860Z,33.23
2023-05-22T05:56:30.912Z,33.14
2023-05-22T05:58:32.588Z,33.12
2023-05-22T06:00:34.378Z,33.09
2023-05-22T06:02:36.097Z,33.14
2023-05-22T06:04:37.707Z,33.18
2023-05-22T06:06:39.540Z,32.92
2023-05-22T06:08:42.271Z,33.20
2023-05-22T06:10:44.050Z,33.13
2023-05-22T06:12:45.705Z,33.05
2023-05-22T06:14:47.572Z,33.00
2023-05-22T06:16:49.220Z,33.15
2023-05-22T06:18:52.524Z,33.19
2023-05-22T06:20:54.319Z,33.15
2023-05-22T06:22:56.039Z,33.05
2023-05-22T06:24:57.829Z,33.13
2023-05-22T06:26:59.868Z,33.31
2023-05-22T06:29:01.463Z,33.45
2023-05-22T06:31:03.232Z,33.13
2023-05-22T06:33:04.886Z,33.26
2023-05-22T06:35:06.804Z,33.43
2023-05-22T06:37:08.572Z,33.05
2023-05-22T06:39:10.282Z,33.37
2023-05-22T06:41:11.909Z,33.21
2023-05-22T06:43:13.623Z,33.31
2023-05-22T06:45:17.489Z,33.50
2023-05-22T06:47:19.337Z,33.20
2023-05-22T06:49:21.032Z,33.24
2023-05-22T06:51:24.419Z,33.30
2023-05-22T06:53:26.015Z,33.19
2023-05-22T06:55:27.701Z,33.49
2023-05-22T06:57:29.309Z,33.30
2023-05-22T06:59:30.891Z,33.45
2023-05-22T07:01:33.227Z,33.24
2023-05-22T07:03:35.110Z,33.53
2023-05-22T07:05:36.994Z,33.65
2023-05-22T07:07:38.629Z,33.20
2023-05-22T07:09:40.784Z,33.62
2023-05-22T07:11:44.012Z,33.75
2023-05-22T07:13:45.754Z,33.38
2023-05-22T07:15:47.527Z,33.49
2023-05-22T07:17:49.430Z,33.72
2023-05-22T07:19:51.243Z,33.96
2023-05-22T07:21:52.861Z,33.83
2023-05-22T07:23:54.496Z,33.61
2023-05-22T07:25:56.367Z,33.74
2023-05-22T07:27:58.481Z,33.77
2023-05-22T07:30:00.287Z,33.69
2023-05-22T07:32:02.055Z,34.07
2023-05-22T07:34:03.825Z,33.76
2023-05-22T07:36:06.256Z,33.79
2023-05-22T07:38:08.089Z,33.59
2023-05-22T07:40:11.180Z,34.03
2023-05-22T07:42:15.161Z,33.78
2023-05-22T07:44:17.193Z,33.82
2023-05-22T07:46:18.855Z,33.89
2023-05-22T07:48:20.553Z,33.60
2023-05-22T07:50:22.292Z,33.96
2023-05-22T07:52:24.165Z,34.06
2023-05-22T07:54:26.156Z,34.24
2023-05-22T07:56:27.800Z,34.15
2023-05-22T07:58:29.644Z,33.81
2023-05-22T08:00:31.352Z,34.29
2023-05-22T08:02:33.556Z,34.05
2023-05-22T08:04:35.632Z,34.06
2023-05-22T08:06:37.763Z,34.10
2023-05-22T08:08:39.469Z,34.05
2023-05-22T08:11:01.839Z,34.19
2023-05-22T08:13:06.183Z,34.41
2023-05-22T08:15:08.423Z,33.95
2023-05-22T08:17:10.514Z,33.89
2023-05-22T08:19:12.416Z,34.15
2023-05-22T08:21:14.086Z,34.22
2023-05-22T08:23:15.868Z,34.46
2023-05-22T08:25:17.662Z,34.06
2023-05-22T08:27:19.305Z,34.38
2023-05-22T08:29:21.226Z,34.15
2023-05-22T08:31:23.237Z,34.08
2023-05-22T08:33:25.158Z,34.45
2023-05-22T08:35:27.021Z,34.12
2023-05-22T08:37:28.743Z,34.04
2023-05-22T08:39:31.346Z,34.47
2023-05-22T08:41:33.052Z,34.38
2023-05-22T08:43:34.986Z,34.37
2023-05-22T08:45:37.012Z,34.32
2023-05-22T08:47:39.533Z,34.38
2023-05-22T08:49:41.357Z,34.42
2023-05-22T08:51:46.550Z,34.40
2023-05-22T08:53:48.614Z,34.59
2023-05-22T08:55:53.165Z,34.63
2023-05-22T08:57:56.828Z,34.22
2023-05-22T08:59:58.469Z,34.68
2023-05-22T09:02:00.064Z,34.53
2023-05-22T09:04:02.722Z,34.39
2023-05-22T09:06:04.683Z,34.85
2023-05-22T09:08:19.944Z,34.40
2023-05-22T09:10:22.542Z,34.65
2023-05-22T09:12:26.011Z,34.34
2023-05-22T09:14:27.943Z,34.28
2023-05-22T09:16:29.618Z,34.47
2023-05-22T09:18:31.966Z,34.47
2023-05-22T09:20:38.939Z,34.76
2023-05-22T09:22:40.874Z,34.74
2023-05-22T09:24:44.445Z,34.88
2023-05-22T09:26:46.258Z,34.89
2023-05-22T09:28:47.839Z,34.77
2023-05-22T09:30:54.040Z,34.56
2023-05-22T09:32:57.111Z,34.67
2023-05-22T09:35:05.366Z,34.76
2023-05-22T09:37:07.016Z,34.86
2023-05-22T09:39:09.523Z,35.06
2023-05-22T09:41:11.318Z,34.86
2023-05-22T09:43:17.714Z,35.01
2023-05-22T09:45:21.090Z,34.87
2023-05-22T09:47:22.742Z,35.23
2023-05-22T09:49:24.564Z,35.12
2023-05-22T09:51:27.361Z,35.12
2023-05-22T09:53:29.984Z,34.80
2023-05-22T09:55:33.665Z,35.04
2023-05-22T09:57:48.230Z,35.28
2023-05-22T09:59:54.898Z,34.82
2023-05-22T10:01:57.277Z,34.95
2023-05-22T10:03:59.157Z,35.37
2023-05-22T10:06:01.959Z,35.29
2023-05-22T10:08:27.864Z,35.25
2023-05-22T10:10:29.562Z,35.10
2023-05-22T10:12:33.576Z,35.35
2023-05-22T10:14:36.664Z,35.28
2023-05-22T10:16:38.700Z,35.38
2023-05-22T10:18:41.015Z,35.03
2023-05-22T10:20:42.714Z,35.42
2023-05-22T10:22:47.072Z,35.32
2023-05-22T10:24:49.018Z,35.39
2023-05-22T10:26:50.735Z,35.38
2023-05-22T10:29:02.226Z,35.31
2023-05-22T10:31:22.875Z,35.25
2023-05-22T10:33:37.716Z,35.67
2023-05-22T10:36:01.187Z,35.68
2023-05-22T10:38:23.370Z,35.57
2023-05-22T10:40:29.260Z,35.57
2023-05-22T10:42:34.323Z,35.62
2023-05-22T10:44:36.339Z,35.43
2023-05-22T10:46:38.012Z,35.53
2023-05-22T10:48:41.651Z,35.53
2023-05-22T10:50:52.788Z,35.46
2023-05-22T10:53:23.970Z,35.54
2023-05-22T10:55:25.438Z,35.79
2023-05-22T10:57:27.681Z,36.08
2023-05-22T10:59:34.726Z,35.79
2023-05-22T11:01:38.299Z,35.95
2023-05-22T11:03:53.272Z,35.99
2023-05-22T11:05:55.060Z,36.21
2023-05-22T11:08:13.636Z,36.18
2023-05-22T11:10:26.160Z,35.97
2023-05-22T11:12:28.787Z,35.91
2023-05-22T11:14:30.813Z,35.77
2023-05-22T11:16:36.009Z,35.82
2023-05-22T11:18:37.801Z,35.88
2023-05-22T11:20:40.085Z,36.04
2023-05-22T11:22:43.428Z,36.13
2023-05-22T11:24:45.092Z,35.97
2023-05-22T11:27:01.018Z,36.28
2023-05-22T11:29:02.828Z,36.16
2023-05-22T11:31:04.502Z,36.32
2023-05-22T11:33:06.766Z,36.34
2023-05-22T11:35:08.844Z,36.13
2023-05-22T11:37:10.664Z,36.08
2023-05-22T11:39:15.002Z,35.98
2023-05-22T11:41:17.125Z,36.29
2023-05-22T11:43:34.031Z,36.37
2023-05-22T11:45:37.643Z,36.25
2023-05-22T11:47:39.305Z,35.95
2023-05-22T11:49:42.538Z,36.05
2023-05-22T11:51:44.625Z,36.27
2023-05-22T11:53:46.688Z,36.21
2023-05-22T11:55:49.721Z,35.94
2023-05-22T11:57:51.393Z,36.17
2023-05-22T11:59:53.161Z,36.43
2023-05-22T12:01:54.845Z,35.71
2023-05-22T12:03:57.084Z,35.74
2023-05-22T12:05:59.208Z,35.91
2023-05-22T12:08:01.138Z,36.10
2023-05-22T12:10:05.509Z,36.21
2023-05-22T12:12:09.757Z,35.88
2023-05-22T12:14:11.586Z,35.96
2023-05-22T12:16:23.814Z,35.55
2023-05-22T12:18:25.837Z,35.96
2023-05-22T12:20:31.134Z,36.04
2023-05-22T12:22:32.924Z,35.94
2023-05-22T12:24:47.488Z,36.03
2023-05-22T12:26:53.310Z,36.15
2023-05-22T12:28:55.476Z,36.20
2023-05-22T12:30:57.218Z,36.51
2023-05-22T12:32:59.170Z,36.19
2023-05-22T12:35:00.922Z,36.20
2023-05-22T12:37:02.617Z,36.19
2023-05-22T12:39:11.216Z,36.66
2023-05-22T12:41:12.859Z,36.85
2023-05-22T12:43:14.633Z,36.59
2023-05-22T12:45:17.867Z,36.67
2023-05-22T12:47:20.183Z,36.77
2023-05-22T12:49:21.841Z,36.72
2023-05-22T12:51:26.963Z,36.20
2023-05-22T12:53:28.767Z,37.11
2023-05-22T12:55:31.067Z,36.29
2023-05-22T12:57:32.734Z,36.67
2023-05-22T12:59:34.717Z,36.79
2023-05-22T13:01:36.412Z,36.88
2023-05-22T13:03:38.083Z,37.14
2023-05-22T13:05:40.066Z,37.19
2023-05-22T13:07:41.939Z,37.35
2023-05-22T13:09:43.576Z,37.56
2023-05-22T13:11:45.459Z,36.81
2023-05-22T13:13:47.580Z,37.55
2023-05-22T13:15:49.470Z,37.38
2023-05-22T13:17:51.316Z,37.49
2023-05-22T13:19:54.703Z,37.64
2023-05-22T13:21:56.350Z,37.42
2023-05-22T13:23:58.231Z,37.24
2023-05-22T13:26:02.015Z,37.44
2023-05-22T13:28:03.941Z,37.53
2023-05-22T13:30:06.806Z,37.47
2023-05-22T13:32:08.630Z,37.55
2023-05-22T13:34:10.413Z,37.46
2023-05-22T13:36:12.817Z,37.33
2023-05-22T13:38:14.430Z,38.33
2023-05-22T13:40:17.085Z,37.71
2023-05-22T13:42:19.026Z,37.97
2023-05-22T13:44:21.303Z,37.69
2023-05-22T13:46:23.091Z,38.07
2023-05-22T13:48:24.871Z,38.31
2023-05-22T13:50:26.598Z,38.33
2023-05-22T13:52:28.677Z,38.16
2023-05-22T13:54:30.355Z,38.23
2023-05-22T13:56:31.959Z,38.26
2023-05-22T13:58:33.628Z,38.33
2023-05-22T14:00:35.396Z,38.33
2023-05-22T14:02:37.166Z,38.13
2023-05-22T14:04:38.886Z,38.72
2023-05-22T14:06:40.866Z,38.50
2023-05-22T14:08:42.595Z,38.23
2023-05-22T14:10:44.180Z,38.61
2023-05-22T14:12:46.190Z,38.36
2023-05-22T14:14:47.845Z,38.42
2023-05-22T14:16:53.209Z,38.21
2023-05-22T14:18:54.896Z,38.41
2023-05-22T14:20:56.524Z,38.66
2023-05-22T14:22:58.655Z,38.71
2023-05-22T14:25:00.303Z,39.01
2023-05-22T14:27:01.910Z,38.73
2023-05-22T14:29:03.615Z,38.47
2023-05-22T14:31:05.349Z,38.63
2023-05-22T14:33:07.380Z,38.42
2023-05-22T14:35:10.072Z,38.50
2023-05-22T14:37:12.090Z,38.84
2023-05-22T14:39:13.788Z,38.46
2023-05-22T14:41:16.306Z,39.05
2023-05-22T14:43:17.934Z,38.85
2023-05-22T14:45:19.578Z,38.62
2023-05-22T14:47:21.254Z,38.96
2023-05-22T14:49:22.881Z,38.46
2023-05-22T14:51:24.529Z,39.12
2023-05-22T14:53:26.133Z,39.10
2023-05-22T14:55:28.217Z,38.50
2023-05-22T14:57:30.541Z,38.79
2023-05-22T14:59:34.007Z,38.28
2023-05-22T15:01:35.669Z,38.74
2023-05-22T15:03:37.287Z,38.47
2023-05-22T15:05:39.370Z,38.67
2023-05-22T15:07:44.751Z,38.71
2023-05-22T15:09:47.833Z,38.38
2023-05-22T15:11:51.029Z,38.37
2023-05-22T15:13:54.411Z,38.49
2023-05-22T15:16:00.808Z,38.17
2023-05-22T15:18:04.710Z,38.41
2023-05-22T15:20:07.053Z,38.45
2023-05-22T15:22:19.593Z,38.30
2023-05-22T15:24:22.107Z,38.39
2023-05-22T15:26:23.948Z,38.07
2023-05-22T15:28:25.849Z,38.34
2023-05-22T15:30:27.456Z,38.23
2023-05-22T15:32:30.700Z,37.94
2023-05-22T15:34:32.457Z,38.21
2023-05-22T15:36:37.212Z,38.14
2023-05-22T15:38:38.821Z,37.98
2023-05-22T15:40:40.885Z,37.77
2023-05-22T15:42:42.545Z,37.92
2023-05-22T15:44:44.272Z,37.67
2023-05-22T15:46:46.061Z,38.13
2023-05-22T15:48:47.620Z,38.54
2023-05-22T15:50:49.362Z,38.51
2023-05-22T15:52:50.968Z,38.39
2023-05-22T15:54:53.182Z,38.16
2023-05-22T15:56:55.648Z,38.61
2023-05-22T15:58:57.272Z,38.50
2023-05-22T16:00:59.622Z,38.62
2023-05-22T16:03:01.313Z,38.66
2023-05-22T16:05:03.060Z,38.70
2023-05-22T16:07:07.930Z,38.30
2023-05-22T16:09:09.925Z,38.32
2023-05-22T16:11:11.569Z,38.16
2023-05-22T16:13:13.708Z,38.22
2023-05-22T16:15:15.424Z,38.12
2023-05-22T16:17:17.124Z,38.57
2023-05-22T16:19:18.765Z,38.60
2023-05-22T16:21:20.894Z,38.40
2023-05-22T16:23:22.608Z,38.52
2023-05-22T16:25:24.174Z,38.92
2023-05-22T16:27:25.939Z,38.79
2023-05-22T16:29:27.601Z,39.04
2023-05-22T16:31:29.919Z,38.98
2023-05-22T16:33:31.850Z,39.04
2023-05-22T16:35:33.528Z,38.76
2023-05-22T16:37:36.089Z,38.76
2023-05-22T16:39:40.005Z,39.12
2023-05-22T16:41:41.684Z,38.98
2023-05-22T16:43:43.417Z,38.66
2023-05-22T16:45:47.674Z,38.45
2023-05-22T16:47:49.514Z,38.81
2023-05-22T16:49:51.115Z,38.65
2023-05-22T16:51:52.994Z,38.52
2023-05-22T16:53:54.605Z,38.88
2023-05-22T16:55:56.186Z,38.66
2023-05-22T16:57:57.888Z,38.44
2023-05-22T16:59:59.902Z,38.67
2023-05-22T17:02:01.602Z,38.72
2023-05-22T17:04:03.257Z,38.53
2023-05-22T17:06:05.258Z,38.45
2023-05-22T17:08:06.891Z,38.45
2023-05-22T17:10:09.028Z,38.56
2023-05-22T17:12:10.722Z,38.00
2023-05-22T17:14:12.820Z,39.05
2023-05-22T17:16:14.474Z,39.07
2023-05-22T17:18:19.878Z,38.73
2023-05-22T17:20:24.822Z,38.54
2023-05-22T17:22:26.480Z,39.28
2023-05-22T17:24:29.922Z,38.59
2023-05-22T17:26:33.509Z,38.82
2023-05-22T17:28:35.668Z,38.79
2023-05-22T17:30:37.333Z,38.75
2023-05-22T17:32:39.030Z,38.51
2023-05-22T17:34:40.953Z,38.62
2023-05-22T17:36:44.717Z,38.76
2023-05-22T17:38:46.880Z,38.33
2023-05-22T17:40:48.726Z,38.88
2023-05-22T17:42:50.498Z,38.90
2023-05-22T17:44:52.499Z,38.96
2023-05-22T17:46:54.088Z,38.75
2023-05-22T17:48:55.753Z,39.11
2023-05-22T17:50:57.544Z,38.72
2023-05-22T17:52:59.200Z,39.08
2023-05-22T17:55:00.856Z,38.71
2023-05-22T17:57:04.273Z,38.95
2023-05-22T17:59:07.225Z,38.55
2023-05-22T18:01:09.007Z,38.36
2023-05-22T18:03:12.214Z,38.81
2023-05-22T18:05:14.067Z,38.39
2023-05-22T18:07:17.134Z,38.88
2023-05-22T18:09:18.775Z,38.30
2023-05-22T18:11:21.014Z,37.95
2023-05-22T18:13:22.722Z,38.23
2023-05-22T18:15:24.469Z,38.25
2023-05-22T18:17:26.536Z,38.04
2023-05-22T18:19:28.361Z,37.98
2023-05-22T18:21:30.040Z,37.71
2023-05-22T18:23:31.664Z,37.92
2023-05-22T18:25:33.253Z,38.46
2023-05-22T18:27:35.723Z,37.97
2023-05-22T18:29:37.464Z,38.71
2023-05-22T18:31:39.081Z,37.88
2023-05-22T18:33:44.753Z,37.90
2023-05-22T18:35:46.702Z,38.21
2023-05-22T18:37:48.359Z,37.96
2023-05-22T18:39:50.409Z,38.40
2023-05-22T18:41:52.018Z,37.68
2023-05-22T18:43:53.620Z,38.01
2023-05-22T18:45:57.122Z,37.85
2023-05-22T18:47:59.025Z,38.17
2023-05-22T18:50:00.840Z,37.82
2023-05-22T18:52:02.477Z,37.15
2023-05-22T18:54:04.058Z,37.96
2023-05-22T18:56:05.869Z,38.44
2023-05-22T18:58:07.539Z,37.96
2023-05-22T19:00:10.391Z,38.80
2023-05-22T19:02:12.127Z,39.23
2023-05-22T19:04:13.890Z,38.44
2023-05-22T19:06:16.096Z,39.23
2023-05-22T19:08:18.518Z,39.21
2023-05-22T19:10:20.121Z,39.02
2023-05-22T19:12:24.448Z,38.89
2023-05-22T19:14:26.151Z,39.06
2023-05-22T19:16:28.065Z,38.87
2023-05-22T19:18:29.819Z,38.63
2023-05-22T19:20:31.798Z,38.88
2023-05-22T19:22:33.590Z,38.85
2023-05-22T19:24:36.146Z,38.60
2023-05-22T19:26:37.875Z,38.50
2023-05-22T19:28:39.689Z,38.92
2023-05-22T19:30:41.705Z,38.69
2023-05-22T19:32:43.856Z,38.81
2023-05-22T19:34:46.399Z,38.86
2023-05-22T19:36:48.185Z,38.92
2023-05-22T19:38:51.240Z,38.71
2023-05-22T19:40:54.529Z,39.04
2023-05-22T19:42:56.344Z,39.19
2023-05-22T19:44:58.022Z,38.80
2023-05-22T19:46:59.936Z,38.85
2023-05-22T19:49:01.680Z,39.30
2023-05-22T19:51:04.192Z,38.81
2023-05-22T19:53:05.759Z,38.21
2023-05-22T19:55:07.642Z,38.99
2023-05-22T19:57:09.384Z,39.08
2023-05-22T19:59:11.269Z,39.15
2023-05-22T20:01:12.956Z,38.92
2023-05-22T20:03:14.924Z,38.59
2023-05-22T20:05:16.956Z,38.92
2023-05-22T20:07:18.652Z,39.00
2023-05-22T20:09:20.536Z,38.76
2023-05-22T20:11:22.257Z,38.96
2023-05-22T20:13:23.875Z,39.01
2023-05-22T20:15:25.915Z,38.74
2023-05-22T20:17:27.581Z,38.44
2023-05-22T20:19:29.867Z,38.97
2023-05-22T20:21:32.035Z,38.76
2023-05-22T20:23:33.964Z,38.56
2023-05-22T20:25:36.124Z,38.79
2023-05-22T20:27:37.771Z,38.46
2023-05-22T20:29:39.590Z,38.91
2023-05-22T20:31:41.422Z,38.59
2023-05-22T20:33:43.180Z,38.82
2023-05-22T20:35:45.080Z,38.73
2023-05-22T20:37:47.499Z,38.69
2023-05-22T20:39:50.167Z,38.52
2023-05-22T20:41:51.944Z,38.77
2023-05-22T20:43:54.461Z,38.56
2023-05-22T20:45:57.279Z,38.64
2023-05-22T20:47:59.099Z,38.83
2023-05-22T20:50:01.102Z,38.73
2023-05-22T20:52:02.898Z,38.84
2023-05-22T20:54:04.520Z,38.84
2023-05-22T20:56:06.646Z,38.83
2023-05-22T20:58:09.153Z,38.91
2023-05-22T21:00:11.632Z,38.71
2023-05-22T21:02:13.345Z,38.62
2023-05-22T21:04:15.022Z,38.48
2023-05-22T21:06:16.742Z,38.23
2023-05-22T21:08:18.480Z,38.04
2023-05-22T21:10:20.108Z,37.89
2023-05-22T21:12:21.756Z,37.62
2023-05-22T21:14:23.515Z,37.77
2023-05-22T21:16:25.108Z,37.64
2023-05-22T21:18:27.251Z,37.36
2023-05-22T21:20:28.861Z,37.14
2023-05-22T21:22:30.732Z,37.46
2023-05-22T21:24:32.651Z,37.34
2023-05-22T21:26:34.229Z,37.22
2023-05-22T21:28:35.869Z,37.00
2023-05-22T21:30:37.763Z,36.87
2023-05-22T21:32:39.640Z,36.90
2023-05-22T21:34:41.569Z,36.83
2023-05-22T21:36:43.207Z,36.90
2023-05-22T21:38:45.349Z,36.65
2023-05-22T21:40:47.011Z,36.81
2023-05-22T21:42:48.672Z,37.07
2023-05-22T21:44:50.259Z,36.93
2023-05-22T21:46:51.977Z,36.81
2023-05-22T21:48:53.926Z,36.71
2023-05-22T21:50:55.771Z,36.55
2023-05-22T21:52:57.709Z,36.51
2023-05-22T21:55:02.125Z,36.24
2023-05-22T21:57:03.903Z,36.48
2023-05-22T21:59:05.679Z,36.64
2023-05-22T22:01:07.285Z,36.63
2023-05-22T22:03:08.936Z,36.74
2023-05-22T22:05:13.571Z,36.62
2023-05-22T22:07:15.433Z,36.30
2023-05-22T22:09:17.021Z,36.45
2023-05-22T22:11:18.978Z,36.51
2023-05-22T22:13:20.769Z,36.01
2023-05-22T22:15:22.754Z,36.08
2023-05-22T22:17:24.366Z,36.38
2023-05-22T22:19:26.005Z,35.93
2023-05-22T22:21:28.172Z,36.26
2023-05-22T22:23:29.830Z,36.53
2023-05-22T22:25:31.989Z,35.78
2023-05-22T22:27:33.665Z,35.99
2023-05-22T22:29:35.455Z,35.58
2023-05-22T22:31:37.858Z,36.22
2023-05-22T22:33:39.423Z,35.65
2023-05-22T22:35:42.477Z,35.76
2023-05-22T22:37:44.170Z,36.09
2023-05-22T22:39:45.808Z,36.17
2023-05-22T22:41:47.368Z,36.13
2023-05-22T22:43:48.930Z,35.98
2023-05-22T22:45:50.716Z,35.85
2023-05-22T22:47:53.018Z,36.21
2023-05-22T22:49:57.130Z,36.04
2023-05-22T22:51:59.274Z,35.70
2023-05-22T22:54:01.230Z,35.91
2023-05-22T22:56:03.153Z,35.75
2023-05-22T22:58:05.355Z,35.83
2023-05-22T23:00:07.920Z,35.64
2023-05-22T23:02:09.580Z,35.60
2023-05-22T23:04:12.867Z,35.62
2023-05-22T23:06:14.750Z,35.78
2023-05-22T23:08:16.499Z,35.99
2023-05-22T23:10:18.198Z,35.55
2023-05-22T23:12:19.918Z,35.31
2023-05-22T23:14:21.525Z,35.36
2023-05-22T23:16:23.543Z,35.60
2023-05-22T23:18:25.688Z,35.30
2023-05-22T23:20:27.330Z,35.67
2023-05-22T23:22:28.878Z,35.29
2023-05-22T23:24:30.463Z,35.71
2023-05-22T23:26:32.816Z,35.42
2023-05-22T23:28:34.439Z,35.73
2023-05-22T23:30:36.037Z,35.06
2023-05-22T23:32:37.718Z,35.43
2023-05-22T23:34:39.441Z,35.17
2023-05-22T23:36:41.151Z,35.18
2023-05-22T23:38:43.001Z,35.28
2023-05-22T23:40:44.800Z,35.62
2023-05-22T23:42:46.401Z,35.56
2023-05-22T23:44:48.044Z,35.40
2023-05-22T23:46:49.976Z,35.25
2023-05-22T23:48:51.746Z,35.36
2023-05-22T23:50:53.423Z,35.13
2023-05-22T23:52:55.034Z,35.36
2023-05-22T23:54:56.811Z,35.38
2023-05-22T23:56:58.365Z,35.40
2023-05-22T23:59:00.002Z,35.10
